sensor_id;sensor_type;location;lat;lon;timestamp;P1;durP1;ratioP1;P2;durP2;ratioP2
38717;SDS011;24468;52.128;9.278;2024-02-21T00:01:41;22.27;;;11.07;;
38717;SDS011;24468;52.128;9.278;2024-02-21T00:04:07;22.77;;;9.98;;
38717;SDS011;24468;52.128;9.278;2024-02-21T00:06:32;25.73;;;10.13;;
38717;SDS011;24468;52.128;9.278;2024-02-21T00:08:58;20.90;;;10.50;;
38717;SDS011;24468;52.128;9.278;2024-02-21T00:11:24;22.13;;;10.68;;
38717;SDS011;24468;52.128;9.278;2024-02-21T00:13:49;23.42;;;11.10;;
38717;SDS011;24468;52.128;9.278;2024-02-21T00:16:18;16.13;;;9.35;;
38717;SDS011;24468;52.128;9.278;2024-02-21T00:18:43;18.73;;;9.30;;
38717;SDS011;24468;52.128;9.278;2024-02-21T00:21:09;17.63;;;9.45;;
38717;SDS011;24468;52.128;9.278;2024-02-21T00:23:39;22.35;;;10.25;;
38717;SDS011;24468;52.128;9.278;2024-02-21T00:26:06;25.10;;;11.23;;
38717;SDS011;24468;52.128;9.278;2024-02-21T00:28:32;26.20;;;10.13;;
38717;SDS011;24468;52.128;9.278;2024-02-21T00:30:58;21.55;;;9.70;;
38717;SDS011;24468;52.128;9.278;2024-02-21T00:33:23;19.33;;;9.30;;
38717;SDS011;24468;52.128;9.278;2024-02-21T00:35:49;22.20;;;10.20;;
38717;SDS011;24468;52.128;9.278;2024-02-21T00:38:15;20.23;;;9.68;;
38717;SDS011;24468;52.128;9.278;2024-02-21T00:40:40;22.48;;;9.30;;
38717;SDS011;24468;52.128;9.278;2024-02-21T00:43:07;24.92;;;9.77;;
38717;SDS011;24468;52.128;9.278;2024-02-21T00:45:32;14.73;;;8.57;;
38717;SDS011;24468;52.128;9.278;2024-02-21T00:47:58;21.55;;;10.05;;
38717;SDS011;24468;52.128;9.278;2024-02-21T00:50:23;18.30;;;9.90;;
38717;SDS011;24468;52.128;9.278;2024-02-21T00:52:49;17.15;;;9.52;;
38717;SDS011;24468;52.128;9.278;2024-02-21T00:55:15;16.15;;;10.02;;
38717;SDS011;24468;52.128;9.278;2024-02-21T00:57:40;28.80;;;10.45;;
38717;SDS011;24468;52.128;9.278;2024-02-21T01:00:06;19.40;;;9.43;;
38717;SDS011;24468;52.128;9.278;2024-02-21T01:02:33;23.55;;;9.70;;
38717;SDS011;24468;52.128;9.278;2024-02-21T01:04:58;18.30;;;9.75;;
38717;SDS011;24468;52.128;9.278;2024-02-21T01:07:24;17.88;;;9.95;;
38717;SDS011;24468;52.128;9.278;2024-02-21T01:09:49;18.10;;;9.75;;
38717;SDS011;24468;52.128;9.278;2024-02-21T01:12:16;20.60;;;10.15;;
38717;SDS011;24468;52.128;9.278;2024-02-21T01:14:42;18.15;;;9.63;;
38717;SDS011;24468;52.128;9.278;2024-02-21T01:17:07;19.40;;;9.80;;
38717;SDS011;24468;52.128;9.278;2024-02-21T01:19:33;20.48;;;10.10;;
38717;SDS011;24468;52.128;9.278;2024-02-21T01:21:58;16.30;;;9.43;;
38717;SDS011;24468;52.128;9.278;2024-02-21T01:24:24;22.88;;;12.38;;
38717;SDS011;24468;52.128;9.278;2024-02-21T01:26:50;27.55;;;11.82;;
38717;SDS011;24468;52.128;9.278;2024-02-21T01:29:15;23.65;;;11.55;;
38717;SDS011;24468;52.128;9.278;2024-02-21T01:31:41;23.17;;;10.68;;
38717;SDS011;24468;52.128;9.278;2024-02-21T01:34:06;24.02;;;11.50;;
38717;SDS011;24468;52.128;9.278;2024-02-21T01:36:32;21.83;;;11.30;;
38717;SDS011;24468;52.128;9.278;2024-02-21T01:38:57;22.95;;;11.48;;
38717;SDS011;24468;52.128;9.278;2024-02-21T01:41:23;19.45;;;11.18;;
38717;SDS011;24468;52.128;9.278;2024-02-21T01:43:49;20.52;;;11.18;;
38717;SDS011;24468;52.128;9.278;2024-02-21T01:46:15;22.88;;;12.00;;
38717;SDS011;24468;52.128;9.278;2024-02-21T01:48:40;22.85;;;12.50;;
38717;SDS011;24468;52.128;9.278;2024-02-21T01:51:06;19.15;;;12.70;;
38717;SDS011;24468;52.128;9.278;2024-02-21T01:53:36;19.15;;;11.10;;
38717;SDS011;24468;52.128;9.278;2024-02-21T01:56:07;19.38;;;12.00;;
38717;SDS011;24468;52.128;9.278;2024-02-21T01:58:33;25.30;;;11.48;;
38717;SDS011;24468;52.128;9.278;2024-02-21T02:01:02;24.42;;;13.07;;
38717;SDS011;24468;52.128;9.278;2024-02-21T02:03:28;21.73;;;11.90;;
38717;SDS011;24468;52.128;9.278;2024-02-21T02:05:55;23.15;;;11.95;;
38717;SDS011;24468;52.128;9.278;2024-02-21T02:08:21;22.55;;;12.38;;
38717;SDS011;24468;52.128;9.278;2024-02-21T02:10:47;16.42;;;11.18;;
38717;SDS011;24468;52.128;9.278;2024-02-21T02:13:13;17.48;;;11.10;;
38717;SDS011;24468;52.128;9.278;2024-02-21T02:15:39;19.33;;;11.85;;
38717;SDS011;24468;52.128;9.278;2024-02-21T02:18:07;20.27;;;11.25;;
38717;SDS011;24468;52.128;9.278;2024-02-21T02:20:33;19.95;;;11.40;;
38717;SDS011;24468;52.128;9.278;2024-02-21T02:23:00;26.33;;;12.45;;
38717;SDS011;24468;52.128;9.278;2024-02-21T02:25:36;21.92;;;10.57;;
38717;SDS011;24468;52.128;9.278;2024-02-21T02:28:08;22.80;;;12.25;;
38717;SDS011;24468;52.128;9.278;2024-02-21T02:30:34;20.77;;;11.98;;
38717;SDS011;24468;52.128;9.278;2024-02-21T02:33:01;19.70;;;12.43;;
38717;SDS011;24468;52.128;9.278;2024-02-21T02:35:31;22.95;;;12.10;;
38717;SDS011;24468;52.128;9.278;2024-02-21T02:37:57;24.35;;;11.73;;
38717;SDS011;24468;52.128;9.278;2024-02-21T02:40:23;27.02;;;13.77;;
38717;SDS011;24468;52.128;9.278;2024-02-21T02:42:49;26.27;;;12.70;;
38717;SDS011;24468;52.128;9.278;2024-02-21T02:45:16;20.40;;;10.90;;
38717;SDS011;24468;52.128;9.278;2024-02-21T02:47:46;29.75;;;12.93;;
38717;SDS011;24468;52.128;9.278;2024-02-21T02:50:12;21.48;;;11.98;;
38717;SDS011;24468;52.128;9.278;2024-02-21T02:52:38;21.30;;;11.20;;
38717;SDS011;24468;52.128;9.278;2024-02-21T02:55:04;22.38;;;12.48;;
38717;SDS011;24468;52.128;9.278;2024-02-21T02:57:31;21.35;;;12.85;;
38717;SDS011;24468;52.128;9.278;2024-02-21T02:59:56;19.15;;;11.02;;
38717;SDS011;24468;52.128;9.278;2024-02-21T03:02:22;18.80;;;12.57;;
38717;SDS011;24468;52.128;9.278;2024-02-21T03:04:48;23.85;;;12.32;;
38717;SDS011;24468;52.128;9.278;2024-02-21T03:07:14;22.85;;;11.57;;
38717;SDS011;24468;52.128;9.278;2024-02-21T03:09:40;21.13;;;12.05;;
38717;SDS011;24468;52.128;9.278;2024-02-21T03:12:08;17.70;;;12.02;;
38717;SDS011;24468;52.128;9.278;2024-02-21T03:14:34;24.52;;;12.15;;
38717;SDS011;24468;52.128;9.278;2024-02-21T03:17:00;21.95;;;12.80;;
38717;SDS011;24468;52.128;9.278;2024-02-21T03:19:27;25.17;;;13.43;;
38717;SDS011;24468;52.128;9.278;2024-02-21T03:21:53;21.80;;;13.23;;
38717;SDS011;24468;52.128;9.278;2024-02-21T03:24:19;23.58;;;13.65;;
38717;SDS011;24468;52.128;9.278;2024-02-21T03:26:45;26.13;;;13.85;;
38717;SDS011;24468;52.128;9.278;2024-02-21T03:29:13;23.02;;;12.77;;
38717;SDS011;24468;52.128;9.278;2024-02-21T03:31:40;21.73;;;14.32;;
38717;SDS011;24468;52.128;9.278;2024-02-21T03:34:06;25.02;;;13.85;;
38717;SDS011;24468;52.128;9.278;2024-02-21T03:36:32;24.55;;;13.23;;
38717;SDS011;24468;52.128;9.278;2024-02-21T03:38:57;21.65;;;13.40;;
38717;SDS011;24468;52.128;9.278;2024-02-21T03:41:23;22.27;;;12.60;;
38717;SDS011;24468;52.128;9.278;2024-02-21T03:43:49;21.20;;;12.75;;
38717;SDS011;24468;52.128;9.278;2024-02-21T03:46:14;21.83;;;14.13;;
38717;SDS011;24468;52.128;9.278;2024-02-21T03:48:40;22.48;;;13.82;;
38717;SDS011;24468;52.128;9.278;2024-02-21T03:51:06;24.02;;;13.00;;
38717;SDS011;24468;52.128;9.278;2024-02-21T03:53:31;21.90;;;12.68;;
38717;SDS011;24468;52.128;9.278;2024-02-21T03:56:00;21.40;;;12.70;;
38717;SDS011;24468;52.128;9.278;2024-02-21T03:58:28;25.27;;;11.90;;
38717;SDS011;24468;52.128;9.278;2024-02-21T04:00:55;21.77;;;12.88;;
38717;SDS011;24468;52.128;9.278;2024-02-21T04:03:20;22.80;;;12.85;;
38717;SDS011;24468;52.128;9.278;2024-02-21T04:05:46;25.00;;;12.25;;
38717;SDS011;24468;52.128;9.278;2024-02-21T04:08:11;22.23;;;11.35;;
38717;SDS011;24468;52.128;9.278;2024-02-21T04:10:37;25.00;;;12.55;;
38717;SDS011;24468;52.128;9.278;2024-02-21T04:13:03;22.90;;;12.10;;
38717;SDS011;24468;52.128;9.278;2024-02-21T04:15:31;23.00;;;10.73;;
38717;SDS011;24468;52.128;9.278;2024-02-21T04:17:56;16.05;;;11.52;;
38717;SDS011;24468;52.128;9.278;2024-02-21T04:20:22;21.00;;;10.95;;
38717;SDS011;24468;52.128;9.278;2024-02-21T04:22:48;20.67;;;11.65;;
38717;SDS011;24468;52.128;9.278;2024-02-21T04:25:13;23.73;;;11.70;;
38717;SDS011;24468;52.128;9.278;2024-02-21T04:27:39;19.30;;;11.93;;
38717;SDS011;24468;52.128;9.278;2024-02-21T04:30:06;20.85;;;10.88;;
38717;SDS011;24468;52.128;9.278;2024-02-21T04:32:32;15.63;;;10.63;;
38717;SDS011;24468;52.128;9.278;2024-02-21T04:34:58;20.17;;;11.40;;
38717;SDS011;24468;52.128;9.278;2024-02-21T04:37:24;18.30;;;10.93;;
38717;SDS011;24468;52.128;9.278;2024-02-21T04:39:49;16.35;;;10.35;;
38717;SDS011;24468;52.128;9.278;2024-02-21T04:42:15;19.70;;;10.38;;
38717;SDS011;24468;52.128;9.278;2024-02-21T04:44:41;16.80;;;10.68;;
38717;SDS011;24468;52.128;9.278;2024-02-21T04:47:07;15.98;;;10.85;;
38717;SDS011;24468;52.128;9.278;2024-02-21T04:49:33;21.50;;;11.15;;
38717;SDS011;24468;52.128;9.278;2024-02-21T04:51:59;24.00;;;11.40;;
38717;SDS011;24468;52.128;9.278;2024-02-21T04:54:24;18.67;;;11.20;;
38717;SDS011;24468;52.128;9.278;2024-02-21T04:56:50;19.98;;;11.52;;
38717;SDS011;24468;52.128;9.278;2024-02-21T04:59:16;15.98;;;10.07;;
38717;SDS011;24468;52.128;9.278;2024-02-21T05:01:42;20.83;;;10.75;;
38717;SDS011;24468;52.128;9.278;2024-02-21T05:04:07;18.52;;;11.80;;
38717;SDS011;24468;52.128;9.278;2024-02-21T05:06:39;24.17;;;10.90;;
38717;SDS011;24468;52.128;9.278;2024-02-21T05:09:06;19.70;;;11.52;;
38717;SDS011;24468;52.128;9.278;2024-02-21T05:11:36;21.25;;;13.65;;
38717;SDS011;24468;52.128;9.278;2024-02-21T05:14:05;18.65;;;11.57;;
38717;SDS011;24468;52.128;9.278;2024-02-21T05:16:31;20.17;;;11.82;;
38717;SDS011;24468;52.128;9.278;2024-02-21T05:18:57;21.27;;;12.07;;
38717;SDS011;24468;52.128;9.278;2024-02-21T05:21:23;21.85;;;12.63;;
38717;SDS011;24468;52.128;9.278;2024-02-21T05:23:49;20.15;;;11.65;;
38717;SDS011;24468;52.128;9.278;2024-02-21T05:26:25;22.33;;;12.13;;
38717;SDS011;24468;52.128;9.278;2024-02-21T05:28:53;20.65;;;12.27;;
38717;SDS011;24468;52.128;9.278;2024-02-21T05:31:19;22.90;;;12.60;;
38717;SDS011;24468;52.128;9.278;2024-02-21T05:33:45;24.25;;;12.38;;
38717;SDS011;24468;52.128;9.278;2024-02-21T05:36:11;19.80;;;10.80;;
38717;SDS011;24468;52.128;9.278;2024-02-21T05:38:37;18.67;;;11.48;;
38717;SDS011;24468;52.128;9.278;2024-02-21T05:41:03;21.20;;;12.27;;
38717;SDS011;24468;52.128;9.278;2024-02-21T05:43:29;19.73;;;12.82;;
38717;SDS011;24468;52.128;9.278;2024-02-21T05:45:54;21.35;;;12.55;;
38717;SDS011;24468;52.128;9.278;2024-02-21T05:48:21;20.02;;;13.25;;
38717;SDS011;24468;52.128;9.278;2024-02-21T05:50:47;19.92;;;13.00;;
38717;SDS011;24468;52.128;9.278;2024-02-21T05:53:12;22.90;;;12.40;;
38717;SDS011;24468;52.128;9.278;2024-02-21T05:55:38;24.75;;;12.85;;
38717;SDS011;24468;52.128;9.278;2024-02-21T05:58:04;22.20;;;12.70;;
38717;SDS011;24468;52.128;9.278;2024-02-21T06:00:30;20.90;;;11.32;;
38717;SDS011;24468;52.128;9.278;2024-02-21T06:02:57;19.65;;;11.45;;
38717;SDS011;24468;52.128;9.278;2024-02-21T06:05:23;25.52;;;12.68;;
38717;SDS011;24468;52.128;9.278;2024-02-21T06:07:48;22.70;;;13.07;;
38717;SDS011;24468;52.128;9.278;2024-02-21T06:10:14;17.80;;;12.43;;
38717;SDS011;24468;52.128;9.278;2024-02-21T06:12:39;21.02;;;11.32;;
38717;SDS011;24468;52.128;9.278;2024-02-21T06:15:05;19.23;;;12.13;;
38717;SDS011;24468;52.128;9.278;2024-02-21T06:17:31;18.73;;;10.98;;
38717;SDS011;24468;52.128;9.278;2024-02-21T06:19:57;19.65;;;11.38;;
38717;SDS011;24468;52.128;9.278;2024-02-21T06:22:22;21.38;;;10.00;;
38717;SDS011;24468;52.128;9.278;2024-02-21T06:24:48;20.13;;;10.05;;
38717;SDS011;24468;52.128;9.278;2024-02-21T06:27:14;20.98;;;10.82;;
38717;SDS011;24468;52.128;9.278;2024-02-21T06:29:41;19.60;;;10.05;;
38717;SDS011;24468;52.128;9.278;2024-02-21T06:32:07;18.73;;;9.90;;
38717;SDS011;24468;52.128;9.278;2024-02-21T06:34:32;19.13;;;10.68;;
38717;SDS011;24468;52.128;9.278;2024-02-21T06:36:58;21.05;;;10.23;;
38717;SDS011;24468;52.128;9.278;2024-02-21T06:39:23;16.67;;;10.70;;
38717;SDS011;24468;52.128;9.278;2024-02-21T06:41:49;16.83;;;10.93;;
38717;SDS011;24468;52.128;9.278;2024-02-21T06:44:18;19.95;;;10.95;;
38717;SDS011;24468;52.128;9.278;2024-02-21T06:46:44;23.65;;;12.38;;
38717;SDS011;24468;52.128;9.278;2024-02-21T06:49:09;20.45;;;10.93;;
38717;SDS011;24468;52.128;9.278;2024-02-21T06:51:41;20.92;;;10.60;;
38717;SDS011;24468;52.128;9.278;2024-02-21T06:54:09;17.60;;;10.43;;
38717;SDS011;24468;52.128;9.278;2024-02-21T06:56:36;20.98;;;11.32;;
38717;SDS011;24468;52.128;9.278;2024-02-21T06:59:02;19.75;;;10.48;;
38717;SDS011;24468;52.128;9.278;2024-02-21T07:01:29;18.52;;;10.63;;
38717;SDS011;24468;52.128;9.278;2024-02-21T07:03:55;19.50;;;12.27;;
38717;SDS011;24468;52.128;9.278;2024-02-21T07:06:21;16.05;;;10.68;;
38717;SDS011;24468;52.128;9.278;2024-02-21T07:08:47;20.55;;;11.90;;
38717;SDS011;24468;52.128;9.278;2024-02-21T07:11:13;20.77;;;12.93;;
38717;SDS011;24468;52.128;9.278;2024-02-21T07:13:38;15.70;;;10.85;;
38717;SDS011;24468;52.128;9.278;2024-02-21T07:16:04;20.23;;;11.35;;
38717;SDS011;24468;52.128;9.278;2024-02-21T07:18:31;20.08;;;11.20;;
38717;SDS011;24468;52.128;9.278;2024-02-21T07:20:57;22.27;;;10.90;;
38717;SDS011;24468;52.128;9.278;2024-02-21T07:23:23;21.48;;;10.98;;
38717;SDS011;24468;52.128;9.278;2024-02-21T07:25:49;19.70;;;11.13;;
38717;SDS011;24468;52.128;9.278;2024-02-21T07:28:14;17.70;;;10.20;;
38717;SDS011;24468;52.128;9.278;2024-02-21T07:30:41;22.02;;;11.23;;
38717;SDS011;24468;52.128;9.278;2024-02-21T07:33:07;17.50;;;10.85;;
38717;SDS011;24468;52.128;9.278;2024-02-21T07:35:32;17.60;;;10.93;;
38717;SDS011;24468;52.128;9.278;2024-02-21T07:37:58;16.77;;;9.38;;
38717;SDS011;24468;52.128;9.278;2024-02-21T07:40:23;19.25;;;9.80;;
38717;SDS011;24468;52.128;9.278;2024-02-21T07:42:49;16.33;;;9.05;;
38717;SDS011;24468;52.128;9.278;2024-02-21T07:45:15;19.35;;;9.50;;
38717;SDS011;24468;52.128;9.278;2024-02-21T07:47:40;16.90;;;9.75;;
38717;SDS011;24468;52.128;9.278;2024-02-21T07:50:07;22.42;;;9.57;;
38717;SDS011;24468;52.128;9.278;2024-02-21T07:52:33;21.20;;;9.75;;
38717;SDS011;24468;52.128;9.278;2024-02-21T07:54:59;15.93;;;8.75;;
38717;SDS011;24468;52.128;9.278;2024-02-21T07:57:24;16.23;;;8.38;;
38717;SDS011;24468;52.128;9.278;2024-02-21T07:59:50;17.65;;;7.93;;
38717;SDS011;24468;52.128;9.278;2024-02-21T08:02:15;15.80;;;7.72;;
38717;SDS011;24468;52.128;9.278;2024-02-21T08:04:41;13.40;;;6.10;;
38717;SDS011;24468;52.128;9.278;2024-02-21T08:07:07;16.27;;;8.00;;
38717;SDS011;24468;52.128;9.278;2024-02-21T08:09:35;15.55;;;6.55;;
38717;SDS011;24468;52.128;9.278;2024-02-21T08:12:02;9.75;;;6.07;;
38717;SDS011;24468;52.128;9.278;2024-02-21T08:14:29;19.02;;;7.70;;
38717;SDS011;24468;52.128;9.278;2024-02-21T08:16:55;13.88;;;7.07;;
38717;SDS011;24468;52.128;9.278;2024-02-21T08:19:21;15.93;;;6.43;;
38717;SDS011;24468;52.128;9.278;2024-02-21T08:21:50;18.17;;;5.60;;
38717;SDS011;24468;52.128;9.278;2024-02-21T08:24:15;12.02;;;6.38;;
38717;SDS011;24468;52.128;9.278;2024-02-21T08:26:41;12.07;;;5.35;;
38717;SDS011;24468;52.128;9.278;2024-02-21T08:29:07;13.25;;;6.03;;
38717;SDS011;24468;52.128;9.278;2024-02-21T08:31:33;10.23;;;6.10;;
38717;SDS011;24468;52.128;9.278;2024-02-21T08:33:59;11.40;;;5.97;;
38717;SDS011;24468;52.128;9.278;2024-02-21T08:36:29;12.00;;;6.10;;
38717;SDS011;24468;52.128;9.278;2024-02-21T08:38:56;13.38;;;6.18;;
38717;SDS011;24468;52.128;9.278;2024-02-21T08:41:23;12.27;;;6.47;;
38717;SDS011;24468;52.128;9.278;2024-02-21T08:43:52;12.98;;;6.55;;
38717;SDS011;24468;52.128;9.278;2024-02-21T08:46:28;12.45;;;6.72;;
38717;SDS011;24468;52.128;9.278;2024-02-21T08:48:54;13.85;;;6.63;;
38717;SDS011;24468;52.128;9.278;2024-02-21T08:51:19;12.88;;;5.90;;
38717;SDS011;24468;52.128;9.278;2024-02-21T08:53:46;12.02;;;6.85;;
38717;SDS011;24468;52.128;9.278;2024-02-21T08:56:12;11.68;;;7.18;;
38717;SDS011;24468;52.128;9.278;2024-02-21T08:58:41;8.48;;;5.28;;
38717;SDS011;24468;52.128;9.278;2024-02-21T09:01:07;7.63;;;4.85;;
38717;SDS011;24468;52.128;9.278;2024-02-21T09:03:36;11.32;;;5.90;;
38717;SDS011;24468;52.128;9.278;2024-02-21T09:06:02;11.88;;;5.65;;
38717;SDS011;24468;52.128;9.278;2024-02-21T09:08:29;8.10;;;4.70;;
38717;SDS011;24468;52.128;9.278;2024-02-21T09:10:55;12.73;;;5.57;;
38717;SDS011;24468;52.128;9.278;2024-02-21T09:13:20;10.52;;;5.07;;
38717;SDS011;24468;52.128;9.278;2024-02-21T09:15:47;8.68;;;5.45;;
38717;SDS011;24468;52.128;9.278;2024-02-21T09:18:13;8.32;;;5.78;;
38717;SDS011;24468;52.128;9.278;2024-02-21T09:20:39;9.57;;;4.63;;
38717;SDS011;24468;52.128;9.278;2024-02-21T09:23:07;12.07;;;5.30;;
38717;SDS011;24468;52.128;9.278;2024-02-21T09:25:33;9.63;;;4.82;;
38717;SDS011;24468;52.128;9.278;2024-02-21T09:27:59;10.93;;;4.13;;
38717;SDS011;24468;52.128;9.278;2024-02-21T09:30:26;11.43;;;3.97;;
38717;SDS011;24468;52.128;9.278;2024-02-21T09:32:52;12.27;;;5.28;;
38717;SDS011;24468;52.128;9.278;2024-02-21T09:35:17;9.52;;;4.63;;
38717;SDS011;24468;52.128;9.278;2024-02-21T09:37:43;11.07;;;4.47;;
38717;SDS011;24468;52.128;9.278;2024-02-21T09:40:09;8.63;;;4.28;;
38717;SDS011;24468;52.128;9.278;2024-02-21T09:42:38;8.63;;;4.45;;
38717;SDS011;24468;52.128;9.278;2024-02-21T09:45:15;10.55;;;4.45;;
38717;SDS011;24468;52.128;9.278;2024-02-21T09:47:50;9.27;;;4.57;;
38717;SDS011;24468;52.128;9.278;2024-02-21T09:50:50;11.95;;;4.45;;
38717;SDS011;24468;52.128;9.278;2024-02-21T09:53:18;10.05;;;4.60;;
38717;SDS011;24468;52.128;9.278;2024-02-21T09:55:44;18.75;;;5.32;;
38717;SDS011;24468;52.128;9.278;2024-02-21T09:58:11;10.50;;;4.50;;
38717;SDS011;24468;52.128;9.278;2024-02-21T10:00:37;7.32;;;3.60;;
38717;SDS011;24468;52.128;9.278;2024-02-21T10:03:03;7.85;;;5.38;;
38717;SDS011;24468;52.128;9.278;2024-02-21T10:05:34;10.15;;;4.18;;
38717;SDS011;24468;52.128;9.278;2024-02-21T10:08:00;7.13;;;3.40;;
38717;SDS011;24468;52.128;9.278;2024-02-21T10:10:27;7.30;;;3.60;;
38717;SDS011;24468;52.128;9.278;2024-02-21T10:12:54;6.60;;;3.40;;
38717;SDS011;24468;52.128;9.278;2024-02-21T10:15:21;7.97;;;3.53;;
38717;SDS011;24468;52.128;9.278;2024-02-21T10:17:48;9.80;;;3.40;;
38717;SDS011;24468;52.128;9.278;2024-02-21T10:20:15;7.72;;;3.58;;
38717;SDS011;24468;52.128;9.278;2024-02-21T10:22:41;9.77;;;3.42;;
38717;SDS011;24468;52.128;9.278;2024-02-21T10:25:07;9.55;;;3.13;;
38717;SDS011;24468;52.128;9.278;2024-02-21T10:27:34;6.95;;;3.30;;
38717;SDS011;24468;52.128;9.278;2024-02-21T10:30:00;2.60;;;2.00;;
38717;SDS011;24468;52.128;9.278;2024-02-21T10:32:25;7.78;;;2.75;;
38717;SDS011;24468;52.128;9.278;2024-02-21T10:35:00;8.77;;;2.92;;
38717;SDS011;24468;52.128;9.278;2024-02-21T10:37:33;8.75;;;3.13;;
38717;SDS011;24468;52.128;9.278;2024-02-21T10:40:00;6.45;;;3.42;;
38717;SDS011;24468;52.128;9.278;2024-02-21T10:42:28;4.53;;;2.33;;
38717;SDS011;24468;52.128;9.278;2024-02-21T10:44:55;6.75;;;2.50;;
38717;SDS011;24468;52.128;9.278;2024-02-21T10:47:30;8.82;;;2.50;;
38717;SDS011;24468;52.128;9.278;2024-02-21T10:50:03;5.55;;;2.70;;
38717;SDS011;24468;52.128;9.278;2024-02-21T10:52:41;4.97;;;2.30;;
38717;SDS011;24468;52.128;9.278;2024-02-21T10:55:20;5.38;;;2.90;;
38717;SDS011;24468;52.128;9.278;2024-02-21T10:57:54;5.13;;;2.50;;
38717;SDS011;24468;52.128;9.278;2024-02-21T11:00:21;4.70;;;2.40;;
38717;SDS011;24468;52.128;9.278;2024-02-21T11:02:49;4.45;;;2.22;;
38717;SDS011;24468;52.128;9.278;2024-02-21T11:05:15;5.82;;;2.92;;
38717;SDS011;24468;52.128;9.278;2024-02-21T11:07:41;4.88;;;3.67;;
38717;SDS011;24468;52.128;9.278;2024-02-21T11:10:19;5.25;;;2.70;;
38717;SDS011;24468;52.128;9.278;2024-02-21T11:12:48;7.20;;;3.03;;
38717;SDS011;24468;52.128;9.278;2024-02-21T11:15:13;4.40;;;3.70;;
38717;SDS011;24468;52.128;9.278;2024-02-21T11:17:39;6.30;;;2.95;;
38717;SDS011;24468;52.128;9.278;2024-02-21T11:20:14;6.75;;;2.60;;
38717;SDS011;24468;52.128;9.278;2024-02-21T11:22:43;9.07;;;4.00;;
38717;SDS011;24468;52.128;9.278;2024-02-21T11:25:09;6.55;;;4.03;;
38717;SDS011;24468;52.128;9.278;2024-02-21T11:27:37;7.55;;;3.95;;
38717;SDS011;24468;52.128;9.278;2024-02-21T11:30:04;6.07;;;3.83;;
38717;SDS011;24468;52.128;9.278;2024-02-21T11:32:30;8.38;;;4.72;;
38717;SDS011;24468;52.128;9.278;2024-02-21T11:35:00;10.68;;;5.45;;
38717;SDS011;24468;52.128;9.278;2024-02-21T11:37:33;11.77;;;4.55;;
38717;SDS011;24468;52.128;9.278;2024-02-21T11:40:03;10.07;;;4.95;;
38717;SDS011;24468;52.128;9.278;2024-02-21T11:42:31;9.57;;;4.45;;
38717;SDS011;24468;52.128;9.278;2024-02-21T11:44:57;10.00;;;5.82;;
38717;SDS011;24468;52.128;9.278;2024-02-21T11:47:25;6.90;;;4.50;;
38717;SDS011;24468;52.128;9.278;2024-02-21T11:49:53;9.15;;;5.68;;
38717;SDS011;24468;52.128;9.278;2024-02-21T11:52:19;14.45;;;6.60;;
38717;SDS011;24468;52.128;9.278;2024-02-21T11:54:50;8.40;;;5.07;;
38717;SDS011;24468;52.128;9.278;2024-02-21T11:57:17;9.15;;;4.97;;
38717;SDS011;24468;52.128;9.278;2024-02-21T11:59:44;8.73;;;5.57;;
38717;SDS011;24468;52.128;9.278;2024-02-21T12:02:10;8.32;;;5.90;;
38717;SDS011;24468;52.128;9.278;2024-02-21T12:04:36;7.70;;;6.10;;
38717;SDS011;24468;52.128;9.278;2024-02-21T12:07:02;8.13;;;5.68;;
38717;SDS011;24468;52.128;9.278;2024-02-21T12:09:30;10.18;;;5.85;;
38717;SDS011;24468;52.128;9.278;2024-02-21T12:12:00;8.75;;;6.10;;
38717;SDS011;24468;52.128;9.278;2024-02-21T12:14:30;9.23;;;5.10;;
38717;SDS011;24468;52.128;9.278;2024-02-21T12:16:58;9.00;;;5.60;;
38717;SDS011;24468;52.128;9.278;2024-02-21T12:19:26;7.80;;;5.40;;
38717;SDS011;24468;52.128;9.278;2024-02-21T12:21:54;9.23;;;5.03;;
38717;SDS011;24468;52.128;9.278;2024-02-21T12:24:26;6.22;;;4.70;;
38717;SDS011;24468;52.128;9.278;2024-02-21T12:26:54;5.78;;;4.10;;
38717;SDS011;24468;52.128;9.278;2024-02-21T12:29:24;9.27;;;4.35;;
38717;SDS011;24468;52.128;9.278;2024-02-21T12:31:50;6.90;;;3.92;;
38717;SDS011;24468;52.128;9.278;2024-02-21T12:34:16;7.85;;;3.88;;
38717;SDS011;24468;52.128;9.278;2024-02-21T12:36:43;8.93;;;4.25;;
38717;SDS011;24468;52.128;9.278;2024-02-21T12:39:10;7.15;;;3.58;;
38717;SDS011;24468;52.128;9.278;2024-02-21T12:41:36;6.70;;;4.20;;
38717;SDS011;24468;52.128;9.278;2024-02-21T12:44:06;15.70;;;3.80;;
38717;SDS011;24468;52.128;9.278;2024-02-21T12:46:36;6.65;;;3.05;;
38717;SDS011;24468;52.128;9.278;2024-02-21T12:49:02;7.50;;;3.63;;
38717;SDS011;24468;52.128;9.278;2024-02-21T12:51:29;3.80;;;2.60;;
38717;SDS011;24468;52.128;9.278;2024-02-21T12:53:55;8.85;;;3.05;;
38717;SDS011;24468;52.128;9.278;2024-02-21T12:56:22;6.45;;;2.40;;
38717;SDS011;24468;52.128;9.278;2024-02-21T12:58:47;7.78;;;2.80;;
38717;SDS011;24468;52.128;9.278;2024-02-21T13:01:13;8.27;;;2.92;;
38717;SDS011;24468;52.128;9.278;2024-02-21T13:03:38;5.20;;;2.47;;
38717;SDS011;24468;52.128;9.278;2024-02-21T13:06:04;7.25;;;2.28;;
38717;SDS011;24468;52.128;9.278;2024-02-21T13:08:33;6.18;;;2.70;;
38717;SDS011;24468;52.128;9.278;2024-02-21T13:11:00;4.75;;;2.00;;
38717;SDS011;24468;52.128;9.278;2024-02-21T13:13:26;7.03;;;3.33;;
38717;SDS011;24468;52.128;9.278;2024-02-21T13:15:51;5.55;;;2.00;;
38717;SDS011;24468;52.128;9.278;2024-02-21T13:18:17;4.43;;;2.22;;
38717;SDS011;24468;52.128;9.278;2024-02-21T13:20:42;7.55;;;2.03;;
38717;SDS011;24468;52.128;9.278;2024-02-21T13:23:08;8.00;;;2.80;;
38717;SDS011;24468;52.128;9.278;2024-02-21T13:25:33;6.47;;;2.40;;
38717;SDS011;24468;52.128;9.278;2024-02-21T13:27:59;4.90;;;1.88;;
38717;SDS011;24468;52.128;9.278;2024-02-21T13:30:25;6.75;;;2.10;;
38717;SDS011;24468;52.128;9.278;2024-02-21T13:32:51;6.65;;;2.28;;
38717;SDS011;24468;52.128;9.278;2024-02-21T13:35:17;10.07;;;1.77;;
38717;SDS011;24468;52.128;9.278;2024-02-21T13:37:43;5.15;;;2.15;;
38717;SDS011;24468;52.128;9.278;2024-02-21T13:40:08;4.35;;;1.83;;
38717;SDS011;24468;52.128;9.278;2024-02-21T13:42:34;5.25;;;2.15;;
38717;SDS011;24468;52.128;9.278;2024-02-21T13:45:01;4.65;;;1.98;;
38717;SDS011;24468;52.128;9.278;2024-02-21T13:47:28;4.95;;;1.83;;
38717;SDS011;24468;52.128;9.278;2024-02-21T13:49:54;5.43;;;1.92;;
38717;SDS011;24468;52.128;9.278;2024-02-21T13:52:20;6.53;;;2.22;;
38717;SDS011;24468;52.128;9.278;2024-02-21T13:54:46;5.45;;;1.77;;
38717;SDS011;24468;52.128;9.278;2024-02-21T13:57:13;4.40;;;1.88;;
38717;SDS011;24468;52.128;9.278;2024-02-21T13:59:39;4.05;;;2.08;;
38717;SDS011;24468;52.128;9.278;2024-02-21T14:02:05;2.90;;;1.80;;
38717;SDS011;24468;52.128;9.278;2024-02-21T14:04:34;9.20;;;2.50;;
38717;SDS011;24468;52.128;9.278;2024-02-21T14:07:00;5.35;;;2.20;;
38717;SDS011;24468;52.128;9.278;2024-02-21T14:09:26;5.38;;;1.80;;
38717;SDS011;24468;52.128;9.278;2024-02-21T14:11:54;6.95;;;2.03;;
38717;SDS011;24468;52.128;9.278;2024-02-21T14:14:20;5.68;;;2.40;;
38717;SDS011;24468;52.128;9.278;2024-02-21T14:16:46;3.97;;;1.63;;
38717;SDS011;24468;52.128;9.278;2024-02-21T14:19:13;4.72;;;1.65;;
38717;SDS011;24468;52.128;9.278;2024-02-21T14:21:39;4.93;;;1.67;;
38717;SDS011;24468;52.128;9.278;2024-02-21T14:24:05;5.13;;;2.00;;
38717;SDS011;24468;52.128;9.278;2024-02-21T14:26:31;3.53;;;1.77;;
38717;SDS011;24468;52.128;9.278;2024-02-21T14:28:57;4.40;;;1.50;;
38717;SDS011;24468;52.128;9.278;2024-02-21T14:31:23;4.70;;;1.48;;